createdAt,value
2022-12-17T00:00:35.688Z,101895.91
2022-12-17T00:03:21.487Z,101890.75
2022-12-17T00:06:06.763Z,101889.91
2022-12-17T00:08:52.213Z,101879.78
2022-12-17T00:11:37.564Z,101892.53
2022-12-17T00:14:23.444Z,101889.97
2022-12-17T00:17:08.665Z,101891.72
2022-12-17T00:19:56.336Z,101906.28
2022-12-17T00:22:41.966Z,101890.22
2022-12-17T00:25:27.523Z,101892.84
2022-12-17T00:28:12.604Z,101887.06
2022-12-17T00:30:57.725Z,101917.59
2022-12-17T00:33:42.863Z,101899.06
2022-12-17T00:36:28.043Z,101904.19
2022-12-17T00:39:13.163Z,101890.59
2022-12-17T00:41:58.383Z,101930.50
2022-12-17T00:44:43.504Z,101927.97
2022-12-17T00:47:28.865Z,101916.31
2022-12-17T00:50:13.989Z,101919.63
2022-12-17T00:52:59.227Z,101925.63
2022-12-17T00:55:44.491Z,101937.56
2022-12-17T00:58:29.943Z,101926.66
2022-12-17T01:01:19.554Z,101924.25
2022-12-17T01:04:05.163Z,101947.13
2022-12-17T01:06:50.248Z,101936.19
2022-12-17T01:09:35.607Z,101959.13
2022-12-17T01:12:20.827Z,101952.41
2022-12-17T01:15:06.205Z,101950.66
2022-12-17T01:17:51.343Z,101955.75
2022-12-17T01:20:37.211Z,101958.31
2022-12-17T01:23:25.904Z,101964.38
2022-12-17T01:26:15.371Z,101960.13
2022-12-17T01:29:01.063Z,101959.34
2022-12-17T01:31:46.892Z,101957.63
2022-12-17T01:34:32.527Z,101969.56
2022-12-17T01:37:17.665Z,101949.22
2022-12-17T01:40:02.846Z,101963.53
2022-12-17T01:43:00.503Z,101936.56
2022-12-17T01:45:55.531Z,101961.16
2022-12-17T01:48:41.784Z,101963.69
2022-12-17T01:51:27.044Z,101973.13
2022-12-17T01:54:12.165Z,101963.06
2022-12-17T01:56:59.543Z,101952.97
2022-12-17T01:59:52.903Z,101983.34
2022-12-17T02:02:38.169Z,101983.50
2022-12-17T02:05:23.764Z,101997.09
2022-12-17T02:09:04.604Z,101976.03
2022-12-17T02:12:02.544Z,101992.03
2022-12-17T02:15:03.609Z,101988.63
2022-12-17T02:17:54.904Z,101991.34
2022-12-17T02:20:50.678Z,101998.13
2022-12-17T02:24:00.705Z,102006.72
2022-12-17T02:27:05.903Z,102001.63
2022-12-17T02:29:54.544Z,101998.31
2022-12-17T02:32:42.304Z,102001.75
2022-12-17T02:35:38.825Z,101989.06
2022-12-17T02:38:37.383Z,102006.88
2022-12-17T02:41:24.004Z,102011.16
2022-12-17T02:44:10.383Z,102003.78
2022-12-17T02:46:57.184Z,102010.59
2022-12-17T02:49:42.564Z,102021.56
2022-12-17T02:52:31.903Z,101997.09
2022-12-17T02:55:19.824Z,102024.13
2022-12-17T02:58:04.944Z,102024.97
2022-12-17T03:00:50.346Z,102023.31
2022-12-17T03:03:36.305Z,102010.59
2022-12-17T03:06:21.852Z,102019.91
2022-12-17T03:09:07.063Z,102019.91
2022-12-17T03:11:52.327Z,102014.06
2022-12-17T03:14:37.524Z,102014.94
2022-12-17T03:17:22.672Z,102012.47
2022-12-17T03:20:07.745Z,102019.13
2022-12-17T03:22:53.164Z,102012.38
2022-12-17T03:25:38.484Z,102017.53
2022-12-17T03:28:25.263Z,102018.31
2022-12-17T03:31:10.564Z,102021.75
2022-12-17T03:33:55.743Z,102026.91
2022-12-17T03:36:41.104Z,101999.03
2022-12-17T03:39:26.365Z,102024.34
2022-12-17T03:42:11.623Z,102020.16
2022-12-17T03:44:56.983Z,102032.06
2022-12-17T03:47:42.104Z,102005.00
2022-12-17T03:50:27.825Z,102031.28
2022-12-17T03:53:12.883Z,102024.47
2022-12-17T03:55:58.104Z,102023.50
2022-12-17T03:58:43.264Z,102029.53
2022-12-17T04:01:28.766Z,102039.00
2022-12-17T04:04:14.223Z,102022.78
2022-12-17T04:06:59.464Z,102039.84
2022-12-17T04:09:44.791Z,102043.19
2022-12-17T04:12:29.933Z,102036.41
2022-12-17T04:15:15.324Z,102051.72
2022-12-17T04:18:00.604Z,102016.25
2022-12-17T04:20:46.023Z,102052.53
2022-12-17T04:23:31.103Z,102057.69
2022-12-17T04:26:16.264Z,102033.19
2022-12-17T04:29:01.625Z,102034.91
2022-12-17T04:31:47.044Z,102026.50
2022-12-17T04:34:32.326Z,102064.47
2022-12-17T04:37:17.485Z,102056.81
2022-12-17T04:40:02.731Z,102059.50
2022-12-17T04:42:47.926Z,102068.75
2022-12-17T04:45:33.043Z,102060.28
2022-12-17T04:48:25.323Z,102063.78
2022-12-17T04:51:11.084Z,102065.47
2022-12-17T04:53:56.343Z,102073.06
2022-12-17T04:56:41.586Z,102081.63
2022-12-17T04:59:26.723Z,102076.66
2022-12-17T05:02:12.006Z,102081.69
2022-12-17T05:04:57.723Z,102070.75
2022-12-17T05:07:42.739Z,102088.53
2022-12-17T05:10:27.964Z,102093.75
2022-12-17T05:13:17.827Z,102092.88
2022-12-17T05:16:02.962Z,102093.75
2022-12-17T05:18:48.263Z,102083.59
2022-12-17T05:21:33.752Z,102079.41
2022-12-17T05:24:19.503Z,102082.03
2022-12-17T05:27:04.745Z,102089.78
2022-12-17T05:29:49.904Z,102098.25
2022-12-17T05:32:35.203Z,102097.47
2022-12-17T05:35:20.404Z,102097.41
2022-12-17T05:38:05.643Z,102089.84
2022-12-17T05:40:51.471Z,102074.84
2022-12-17T05:43:37.115Z,102109.50
2022-12-17T05:46:22.787Z,102116.38
2022-12-17T05:49:08.164Z,102124.06
2022-12-17T05:51:53.403Z,102119.81
2022-12-17T05:54:38.628Z,102131.81
2022-12-17T05:57:23.903Z,102123.38
2022-12-17T06:00:09.183Z,102144.75
2022-12-17T06:02:54.411Z,102153.25
2022-12-17T06:05:40.164Z,102156.72
2022-12-17T06:08:26.365Z,102154.19
2022-12-17T06:11:12.046Z,102157.63
2022-12-17T06:13:57.942Z,102137.31
2022-12-17T06:16:43.026Z,102163.59
2022-12-17T06:19:28.323Z,102168.69
2022-12-17T06:22:13.382Z,102154.31
2022-12-17T06:24:58.628Z,102170.34
2022-12-17T06:27:43.725Z,102171.22
2022-12-17T06:30:30.043Z,102172.91
2022-12-17T06:33:27.245Z,102165.31
2022-12-17T06:36:19.688Z,102154.31
2022-12-17T06:39:07.026Z,102176.38
2022-12-17T06:41:52.305Z,102178.13
2022-12-17T06:44:37.503Z,102184.09
2022-12-17T06:47:22.724Z,102185.75
2022-12-17T06:50:07.823Z,102183.25
2022-12-17T06:52:53.144Z,102178.16
2022-12-17T06:55:38.342Z,102181.59
2022-12-17T06:58:23.451Z,102185.81
2022-12-17T07:01:09.632Z,102184.09
2022-12-17T07:03:54.765Z,102192.56
2022-12-17T07:06:40.845Z,102197.56
2022-12-17T07:09:26.166Z,102198.41
2022-12-17T07:12:11.310Z,102197.59
2022-12-17T07:14:56.812Z,102212.09
2022-12-17T07:17:42.346Z,102188.41
2022-12-17T07:20:28.499Z,102215.44
2022-12-17T07:23:16.843Z,102223.09
2022-12-17T07:26:02.092Z,102228.19
2022-12-17T07:28:47.385Z,102211.19
2022-12-17T07:31:32.690Z,102226.50
2022-12-17T07:34:18.124Z,102232.44
2022-12-17T07:37:03.323Z,102243.31
2022-12-17T07:39:48.448Z,102245.03
2022-12-17T07:42:33.866Z,102248.38
2022-12-17T07:45:19.024Z,102245.91
2022-12-17T07:48:13.328Z,102255.94
2022-12-17T07:50:58.724Z,102255.09
2022-12-17T07:53:44.063Z,102262.66
2022-12-17T07:56:29.304Z,102255.66
2022-12-17T07:59:14.685Z,102270.06
2022-12-17T08:02:00.045Z,102269.97
2022-12-17T08:04:45.347Z,102268.97
2022-12-17T08:07:30.644Z,102262.03
2022-12-17T08:10:15.664Z,102244.84
2022-12-17T08:13:00.924Z,102252.31
2022-12-17T08:15:45.925Z,102232.81
2022-12-17T08:18:31.165Z,102248.38
2022-12-17T08:21:16.425Z,102252.06
2022-12-17T08:24:01.644Z,102255.94
2022-12-17T08:26:48.298Z,102259.69
2022-12-17T08:29:33.945Z,102242.28
2022-12-17T08:32:19.285Z,102267.13
2022-12-17T08:35:04.369Z,102269.91
2022-12-17T08:37:49.466Z,102254.13
2022-12-17T08:40:34.604Z,102228.09
2022-12-17T08:43:19.711Z,102277.38
2022-12-17T08:46:06.528Z,102272.31
2022-12-17T08:48:51.964Z,102278.97
2022-12-17T08:51:37.184Z,102268.44
2022-12-17T08:54:22.384Z,102255.50
2022-12-17T08:57:07.468Z,102246.69
2022-12-17T08:59:52.784Z,102270.84
2022-12-17T09:02:38.115Z,102271.25
2022-12-17T09:05:24.243Z,102276.75
2022-12-17T09:08:19.264Z,102270.28
2022-12-17T09:11:04.603Z,102246.00
2022-12-17T09:13:49.745Z,102267.63
2022-12-17T09:16:34.954Z,102257.22
2022-12-17T09:19:20.404Z,102261.25
2022-12-17T09:22:05.524Z,102260.50
2022-12-17T09:24:50.725Z,102267.44
2022-12-17T09:27:35.951Z,102270.13
2022-12-17T09:30:21.524Z,102280.56
2022-12-17T09:33:06.683Z,102263.75
2022-12-17T09:35:52.029Z,102273.22
2022-12-17T09:38:37.405Z,102272.53
2022-12-17T09:41:45.688Z,102270.91
2022-12-17T09:45:03.884Z,102278.78
2022-12-17T09:48:07.884Z,102278.00
2022-12-17T09:50:53.207Z,102260.22
2022-12-17T09:53:44.523Z,102276.81
2022-12-17T09:56:30.804Z,102273.09
2022-12-17T09:59:15.984Z,102272.75
2022-12-17T10:02:01.287Z,102281.66
2022-12-17T10:05:03.014Z,102285.44
2022-12-17T10:07:53.984Z,102281.56
2022-12-17T10:10:44.765Z,102273.59
2022-12-17T10:13:32.210Z,102280.66
2022-12-17T10:16:17.474Z,102275.25
2022-12-17T10:19:03.380Z,102266.34
2022-12-17T10:21:49.104Z,102271.19
2022-12-17T10:24:34.405Z,102259.06
2022-12-17T10:27:27.764Z,102263.97
2022-12-17T10:30:13.074Z,102282.59
2022-12-17T10:32:58.484Z,102282.50
2022-12-17T10:35:55.964Z,102285.91
2022-12-17T10:38:48.342Z,102244.53
2022-12-17T10:41:39.843Z,102285.81
2022-12-17T10:44:47.865Z,102286.66
2022-12-17T10:47:52.302Z,102286.59
2022-12-17T10:50:41.584Z,102289.09
2022-12-17T10:53:40.492Z,102278.78
2022-12-17T10:56:26.142Z,102279.53
2022-12-17T10:59:12.414Z,102270.44
2022-12-17T11:01:58.326Z,102285.72
2022-12-17T11:04:55.665Z,102281.69
2022-12-17T11:07:47.943Z,102285.94
2022-12-17T11:10:38.143Z,102273.28
2022-12-17T11:13:35.918Z,102274.97
2022-12-17T11:16:59.883Z,102275.13
2022-12-17T11:20:14.008Z,102255.78
2022-12-17T11:23:08.602Z,102282.03
2022-12-17T11:26:21.047Z,102287.84
2022-12-17T11:29:06.403Z,102273.44
2022-12-17T11:32:13.344Z,102285.50
2022-12-17T11:35:36.767Z,102291.75
2022-12-17T11:38:52.505Z,102277.53
2022-12-17T11:41:53.367Z,102300.25
2022-12-17T11:44:48.303Z,102287.75
2022-12-17T11:48:07.443Z,102295.84
2022-12-17T11:51:03.843Z,102295.00
2022-12-17T11:54:24.823Z,102301.81
2022-12-17T11:57:51.383Z,102276.38
2022-12-17T12:00:41.323Z,102288.28
2022-12-17T12:03:45.620Z,102311.31
2022-12-17T12:06:54.183Z,102263.00
2022-12-17T12:09:54.523Z,102309.66
2022-12-17T12:12:51.244Z,102308.00
2022-12-17T12:15:39.949Z,102303.75
2022-12-17T12:18:35.243Z,102298.78
2022-12-17T12:21:47.213Z,102298.84
2022-12-17T12:25:10.084Z,102299.69
2022-12-17T12:28:24.805Z,102289.69
2022-12-17T12:31:12.539Z,102301.59
2022-12-17T12:34:11.464Z,102281.28
2022-12-17T12:36:56.585Z,102285.69
2022-12-17T12:39:47.866Z,102275.63
2022-12-17T12:42:57.243Z,102310.41
2022-12-17T12:46:02.698Z,102308.81
2022-12-17T12:49:16.084Z,102303.06
2022-12-17T12:52:01.305Z,102310.75
2022-12-17T12:55:10.246Z,102267.66
2022-12-17T12:57:58.745Z,102310.13
2022-12-17T13:00:54.196Z,102307.66
2022-12-17T13:04:04.886Z,102301.13
2022-12-17T13:06:57.191Z,102314.88
2022-12-17T13:09:33.825Z,102315.84
2022-12-17T13:12:04.348Z,102318.56
2022-12-17T13:14:35.984Z,102324.72
2022-12-17T13:17:05.524Z,102326.63
2022-12-17T13:19:37.304Z,102329.28
2022-12-17T13:22:23.362Z,102336.25
2022-12-17T13:24:53.128Z,102335.50
2022-12-17T13:27:35.666Z,102334.78
2022-12-17T13:30:22.665Z,102337.53
2022-12-17T13:33:19.865Z,102335.06
2022-12-17T13:36:24.124Z,102336.91
2022-12-17T13:39:12.644Z,102348.19
2022-12-17T13:41:39.523Z,102350.91
2022-12-17T13:44:22.124Z,102357.03
2022-12-17T13:46:50.243Z,102363.09
2022-12-17T13:49:22.143Z,102350.41
2022-12-17T13:51:49.304Z,102359.88
2022-12-17T13:54:18.304Z,102366.72
2022-12-17T13:56:45.367Z,102344.81
2022-12-17T13:59:24.103Z,102370.31
2022-12-17T14:01:54.630Z,102371.19
2022-12-17T14:04:25.204Z,102376.38
2022-12-17T14:06:52.945Z,102366.25
2022-12-17T14:09:21.347Z,102354.50
2022-12-17T14:12:07.624Z,102369.88
2022-12-17T14:14:39.324Z,102364.78
2022-12-17T14:17:07.830Z,102377.66
2022-12-17T14:19:34.766Z,102380.38
2022-12-17T14:22:01.623Z,102386.41
2022-12-17T14:24:29.663Z,102382.25
2022-12-17T14:27:03.092Z,102377.38
2022-12-17T14:29:31.213Z,102383.44
2022-12-17T14:32:00.557Z,102403.84
2022-12-17T14:34:27.546Z,102400.50
2022-12-17T14:37:00.876Z,102397.25
2022-12-17T14:39:29.224Z,102416.00
2022-12-17T14:42:26.540Z,102421.22
2022-12-17T14:44:58.310Z,102425.53
2022-12-17T14:47:27.099Z,102428.16
2022-12-17T14:50:01.356Z,102429.00
2022-12-17T14:52:48.955Z,102432.47
2022-12-17T14:55:55.278Z,102435.91
2022-12-17T14:58:23.413Z,102440.19
2022-12-17T15:01:17.625Z,102419.88
2022-12-17T15:03:46.415Z,102435.19
2022-12-17T15:06:18.078Z,102453.97
2022-12-17T15:08:48.631Z,102450.66
2022-12-17T15:11:20.444Z,102451.50
2022-12-17T15:13:50.311Z,102454.84
2022-12-17T15:16:21.559Z,102454.91
2022-12-17T15:18:48.562Z,102461.69
2022-12-17T15:21:15.445Z,102443.00
2022-12-17T15:23:43.771Z,102455.75
2022-12-17T15:26:10.842Z,102465.16
2022-12-17T15:28:38.271Z,102468.56
2022-12-17T15:31:05.677Z,102467.78
2022-12-17T15:33:32.974Z,102458.44
2022-12-17T15:35:59.871Z,102479.75
2022-12-17T15:38:26.816Z,102445.78
2022-12-17T15:40:53.919Z,102474.66
2022-12-17T15:43:21.008Z,102454.34
2022-12-17T15:45:50.138Z,102467.09
2022-12-17T15:48:19.825Z,102480.66
2022-12-17T15:50:47.366Z,102465.47
2022-12-17T15:53:14.696Z,102478.19
2022-12-17T15:55:41.763Z,102476.50
2022-12-17T15:58:10.704Z,102467.16
2022-12-17T16:00:37.611Z,102463.78
2022-12-17T16:03:04.499Z,102487.59
2022-12-17T16:05:31.349Z,102484.19
2022-12-17T16:08:02.411Z,102485.97
2022-12-17T16:10:29.898Z,102484.34
2022-12-17T16:12:56.738Z,102471.63
2022-12-17T16:15:23.531Z,102495.53
2022-12-17T16:17:50.391Z,102471.78
2022-12-17T16:20:17.516Z,102496.47
2022-12-17T16:22:44.509Z,102497.50
2022-12-17T16:25:11.378Z,102508.59
2022-12-17T16:27:38.229Z,102493.41
2022-12-17T16:30:05.609Z,102511.31
2022-12-17T16:32:36.653Z,102513.94
2022-12-17T16:35:04.980Z,102502.91
2022-12-17T16:37:31.841Z,102506.41
2022-12-17T16:40:00.456Z,102504.78
2022-12-17T16:42:27.942Z,102525.25
2022-12-17T16:44:55.031Z,102512.59
2022-12-17T16:47:21.838Z,102524.50
2022-12-17T16:49:50.438Z,102514.41
2022-12-17T16:52:17.239Z,102521.31
2022-12-17T16:54:44.032Z,102513.75
2022-12-17T16:57:10.849Z,102492.59
2022-12-17T16:59:37.679Z,102539.34
2022-12-17T17:02:04.665Z,102536.84
2022-12-17T17:04:31.624Z,102542.88
2022-12-17T17:06:58.470Z,102543.78
2022-12-17T17:09:25.804Z,102560.09
2022-12-17T17:11:55.950Z,102561.84
2022-12-17T17:14:22.767Z,102561.88
2022-12-17T17:16:49.828Z,102567.09
2022-12-17T17:19:16.689Z,102571.41
2022-12-17T17:21:52.628Z,102567.13
2022-12-17T17:24:22.083Z,102574.00
2022-12-17T17:26:49.809Z,102557.09
2022-12-17T17:29:16.805Z,102581.81
2022-12-17T17:32:09.099Z,102580.19
2022-12-17T17:34:30.403Z,102585.34
2022-12-17T17:36:57.304Z,102575.19
2022-12-17T17:39:24.149Z,102592.31
2022-12-17T17:41:50.918Z,102586.41
2022-12-17T17:44:17.710Z,102582.13
2022-12-17T17:46:44.637Z,102589.84
2022-12-17T17:49:12.227Z,102582.25
2022-12-17T17:54:28.457Z,102591.72
2022-12-17T17:56:55.286Z,102601.16
2022-12-17T17:59:29.196Z,102575.69
2022-12-17T18:02:00.130Z,102590.19
2022-12-17T18:04:27.131Z,102614.03
2022-12-17T18:07:23.708Z,102614.91
2022-12-17T18:09:40.862Z,102592.75
2022-12-17T18:12:26.242Z,102590.31
2022-12-17T18:15:13.196Z,102624.25
2022-12-17T18:17:39.868Z,102615.63
2022-12-17T18:20:07.210Z,102626.72
2022-12-17T18:22:34.013Z,102625.00
2022-12-17T18:25:00.823Z,102626.72
2022-12-17T18:27:27.658Z,102613.13
2022-12-17T18:29:54.539Z,102633.50
2022-12-17T18:32:21.370Z,102625.81
2022-12-17T18:34:48.289Z,102637.78
2022-12-17T18:37:15.218Z,102651.38
2022-12-17T18:39:42.067Z,102635.16
2022-12-17T18:42:27.570Z,102627.47
2022-12-17T18:44:54.350Z,102644.44
2022-12-17T18:47:21.623Z,102652.97
2022-12-17T18:49:48.661Z,102654.66
2022-12-17T18:52:17.366Z,102652.13
2022-12-17T18:54:44.846Z,102659.75
2022-12-17T18:57:11.731Z,102663.13
2022-12-17T18:59:40.887Z,102654.56
2022-12-17T19:02:14.755Z,102657.19
2022-12-17T19:04:41.817Z,102654.75
2022-12-17T19:07:08.644Z,102668.25
2022-12-17T19:09:36.175Z,102670.81
2022-12-17T19:12:07.496Z,102671.69
2022-12-17T19:14:34.448Z,102672.53
2022-12-17T19:17:01.284Z,102669.16
2022-12-17T19:19:28.121Z,102653.81
2022-12-17T19:21:55.374Z,102673.41
2022-12-17T19:24:22.618Z,102656.44
2022-12-17T19:26:49.710Z,102673.41
2022-12-17T19:29:17.040Z,102678.56
2022-12-17T19:31:44.075Z,102669.28
2022-12-17T19:34:12.796Z,102663.25
2022-12-17T19:36:40.071Z,102677.72
2022-12-17T19:39:08.362Z,102677.75
2022-12-17T19:41:35.185Z,102673.53
2022-12-17T19:44:04.201Z,102671.88
2022-12-17T19:46:31.832Z,102674.44
2022-12-17T19:48:58.709Z,102695.84
2022-12-17T19:51:26.949Z,102691.63
2022-12-17T19:53:54.401Z,102697.72
2022-12-17T19:56:21.931Z,102713.13
2022-12-17T19:58:53.609Z,102707.25
2022-12-17T20:01:22.456Z,102712.38
2022-12-17T20:03:49.591Z,102707.34
2022-12-17T20:06:17.490Z,102706.56
2022-12-17T20:08:45.069Z,102703.22
2022-12-17T20:11:31.523Z,102712.69
2022-12-17T20:14:02.168Z,102714.47
2022-12-17T20:16:30.049Z,102720.50
2022-12-17T20:18:58.939Z,102717.97
2022-12-17T20:21:25.907Z,102719.72
2022-12-17T20:23:52.738Z,102725.66
2022-12-17T20:26:19.759Z,102736.00
2022-12-17T20:28:46.680Z,102740.28
2022-12-17T20:31:13.601Z,102734.38
2022-12-17T20:33:40.509Z,102742.06
2022-12-17T20:36:12.349Z,102737.03
2022-12-17T20:38:39.820Z,102751.56
2022-12-17T20:41:17.722Z,102698.81
2022-12-17T20:43:44.562Z,102746.53
2022-12-17T20:46:11.669Z,102751.72
2022-12-17T20:48:39.952Z,102748.38
2022-12-17T20:51:10.948Z,102762.91
2022-12-17T20:53:37.861Z,102746.78
2022-12-17T20:56:07.022Z,102763.88
2022-12-17T20:58:33.922Z,102765.59
2022-12-17T21:01:15.596Z,102743.53
2022-12-17T21:03:42.967Z,102759.75
2022-12-17T21:06:10.720Z,102767.44
2022-12-17T21:08:38.312Z,102766.59
2022-12-17T21:11:06.062Z,102725.69
2022-12-17T21:13:33.201Z,102770.00
2022-12-17T21:16:04.942Z,102771.72
2022-12-17T21:18:32.081Z,102768.34
2022-12-17T21:21:03.629Z,102743.63
2022-12-17T21:23:30.517Z,102768.34
2022-12-17T21:26:21.600Z,102768.38
2022-12-17T21:28:49.721Z,102765.81
2022-12-17T21:31:38.420Z,102775.19
2022-12-17T21:34:06.107Z,102785.44
2022-12-17T21:36:33.741Z,102780.31
2022-12-17T21:39:00.862Z,102781.16
2022-12-17T21:41:33.582Z,102778.63
2022-12-17T21:44:02.141Z,102778.63
2022-12-17T21:46:29.423Z,102786.31
2022-12-17T21:48:57.468Z,102782.06
2022-12-17T21:51:24.441Z,102786.31
2022-12-17T21:53:55.821Z,102780.34
2022-12-17T21:56:22.700Z,102787.19
2022-12-17T21:58:50.241Z,102771.81
2022-12-17T22:01:19.802Z,102790.56
2022-12-17T22:03:53.513Z,102765.81
2022-12-17T22:06:22.240Z,102794.00
2022-12-17T22:08:51.097Z,102792.28
2022-12-17T22:11:24.846Z,102789.72
2022-12-17T22:14:09.124Z,102793.97
2022-12-17T22:16:47.394Z,102795.66
2022-12-17T22:19:16.283Z,102811.03
2022-12-17T22:21:44.520Z,102811.88
2022-12-17T22:24:16.000Z,102810.16
2022-12-17T22:26:42.942Z,102816.13
2022-12-17T22:29:09.861Z,102818.69
2022-12-17T22:31:55.398Z,102821.25
2022-12-17T22:36:19.746Z,102822.94
2022-12-17T22:40:36.878Z,102818.69
2022-12-17T22:44:30.451Z,102807.59
2022-12-17T22:44:43.118Z,102828.91
2022-12-17T22:45:48.780Z,102830.59
2022-12-17T22:48:15.607Z,102829.75
2022-12-17T22:50:51.535Z,102780.25
2022-12-17T22:53:29.840Z,102834.03
2022-12-17T22:55:57.502Z,102834.03
2022-12-17T22:58:25.281Z,102836.59
2022-12-17T23:00:52.142Z,102820.34
2022-12-17T23:03:19.201Z,102839.13
2022-12-17T23:05:46.243Z,102818.66
2022-12-17T23:08:13.082Z,102848.50
2022-12-17T23:10:39.902Z,102852.75
2022-12-17T23:13:06.881Z,102854.47
2022-12-17T23:15:34.729Z,102839.09
2022-12-17T23:18:04.379Z,102838.19
2022-12-17T23:20:32.681Z,102855.28
2022-12-17T23:22:59.881Z,102825.38
2022-12-17T23:25:27.121Z,102856.13
2022-12-17T23:27:55.081Z,102865.50
2022-12-17T23:30:22.188Z,102849.25
2022-12-17T23:32:49.124Z,102862.91
2022-12-17T23:35:15.961Z,102875.72
2022-12-17T23:37:42.869Z,102878.28
2022-12-17T23:40:10.861Z,102869.72
2022-12-17T23:42:37.940Z,102868.88
2022-12-17T23:45:06.081Z,102875.72
2022-12-17T23:47:32.961Z,102879.97
2022-12-17T23:49:59.762Z,102875.72
2022-12-17T23:52:26.620Z,102878.25
2022-12-17T23:54:53.522Z,102882.53
2022-12-17T23:57:20.380Z,102888.50
2022-12-17T23:59:47.223Z,102882.53
